sensor_id;sensor_type;location;lat;lon;timestamp;temperature;humidity
18721;DHT22;9489;50.948;3.114;2023-05-07T00:01:45;17.00;17.40
18721;DHT22;9489;50.948;3.114;2023-05-07T00:04:11;17.00;18.80
18721;DHT22;9489;50.948;3.114;2023-05-07T00:06:37;17.00;17.40
18721;DHT22;9489;50.948;3.114;2023-05-07T00:09:02;16.90;24.30
18721;DHT22;9489;50.948;3.114;2023-05-07T00:11:29;17.00;18.40
18721;DHT22;9489;50.948;3.114;2023-05-07T00:13:55;16.90;21.30
18721;DHT22;9489;50.948;3.114;2023-05-07T00:16:21;17.00;22.10
18721;DHT22;9489;50.948;3.114;2023-05-07T00:18:47;16.90;22.90
18721;DHT22;9489;50.948;3.114;2023-05-07T00:21:12;16.90;24.20
18721;DHT22;9489;50.948;3.114;2023-05-07T00:23:38;16.80;32.30
18721;DHT22;9489;50.948;3.114;2023-05-07T00:26:04;16.90;26.10
18721;DHT22;9489;50.948;3.114;2023-05-07T00:28:30;16.80;31.90
18721;DHT22;9489;50.948;3.114;2023-05-07T00:30:56;16.80;42.90
18721;DHT22;9489;50.948;3.114;2023-05-07T00:33:21;16.70;48.20
18721;DHT22;9489;50.948;3.114;2023-05-07T00:35:48;16.70;58.50
18721;DHT22;9489;50.948;3.114;2023-05-07T00:38:15;16.70;49.80
18721;DHT22;9489;50.948;3.114;2023-05-07T00:40:40;16.80;45.80
18721;DHT22;9489;50.948;3.114;2023-05-07T00:43:06;16.80;44.70
18721;DHT22;9489;50.948;3.114;2023-05-07T00:45:33;16.80;47.50
18721;DHT22;9489;50.948;3.114;2023-05-07T00:48:00;16.80;45.90
18721;DHT22;9489;50.948;3.114;2023-05-07T00:50:27;16.80;44.60
18721;DHT22;9489;50.948;3.114;2023-05-07T00:52:54;16.80;50.00
18721;DHT22;9489;50.948;3.114;2023-05-07T00:55:21;16.70;54.40
18721;DHT22;9489;50.948;3.114;2023-05-07T00:57:46;16.70;61.20
18721;DHT22;9489;50.948;3.114;2023-05-07T01:00:12;16.70;62.10
18721;DHT22;9489;50.948;3.114;2023-05-07T01:02:39;16.70;57.10
18721;DHT22;9489;50.948;3.114;2023-05-07T01:05:06;16.70;64.40
18721;DHT22;9489;50.948;3.114;2023-05-07T01:07:33;16.70;60.90
18721;DHT22;9489;50.948;3.114;2023-05-07T01:10:00;16.70;52.80
18721;DHT22;9489;50.948;3.114;2023-05-07T01:12:29;16.70;54.40
18721;DHT22;9489;50.948;3.114;2023-05-07T01:14:56;16.80;57.60
18721;DHT22;9489;50.948;3.114;2023-05-07T01:17:23;16.90;49.50
18721;DHT22;9489;50.948;3.114;2023-05-07T01:19:48;16.80;47.60
18721;DHT22;9489;50.948;3.114;2023-05-07T01:22:16;16.90;46.60
18721;DHT22;9489;50.948;3.114;2023-05-07T01:24:44;16.90;44.60
18721;DHT22;9489;50.948;3.114;2023-05-07T01:27:09;16.80;46.50
18721;DHT22;9489;50.948;3.114;2023-05-07T01:29:35;16.80;52.00
18721;DHT22;9489;50.948;3.114;2023-05-07T01:32:02;16.80;50.60
18721;DHT22;9489;50.948;3.114;2023-05-07T01:34:31;16.90;47.30
18721;DHT22;9489;50.948;3.114;2023-05-07T01:36:58;16.90;58.50
18721;DHT22;9489;50.948;3.114;2023-05-07T01:39:25;16.80;61.60
18721;DHT22;9489;50.948;3.114;2023-05-07T01:41:54;16.70;77.40
18721;DHT22;9489;50.948;3.114;2023-05-07T01:44:21;16.80;70.50
18721;DHT22;9489;50.948;3.114;2023-05-07T01:46:47;16.90;62.20
18721;DHT22;9489;50.948;3.114;2023-05-07T01:49:14;16.90;57.00
18721;DHT22;9489;50.948;3.114;2023-05-07T01:51:40;16.90;58.70
18721;DHT22;9489;50.948;3.114;2023-05-07T01:54:05;16.90;57.60
18721;DHT22;9489;50.948;3.114;2023-05-07T01:56:32;16.90;59.40
18721;DHT22;9489;50.948;3.114;2023-05-07T01:58:57;17.00;54.30
18721;DHT22;9489;50.948;3.114;2023-05-07T02:01:23;17.00;49.10
18721;DHT22;9489;50.948;3.114;2023-05-07T02:03:49;16.80;61.80
18721;DHT22;9489;50.948;3.114;2023-05-07T02:06:14;16.80;78.00
18721;DHT22;9489;50.948;3.114;2023-05-07T02:08:40;16.80;76.70
18721;DHT22;9489;50.948;3.114;2023-05-07T02:11:06;16.80;88.50
18721;DHT22;9489;50.948;3.114;2023-05-07T02:13:33;16.80;78.20
18721;DHT22;9489;50.948;3.114;2023-05-07T02:15:58;16.80;69.30
18721;DHT22;9489;50.948;3.114;2023-05-07T02:18:24;16.90;68.60
18721;DHT22;9489;50.948;3.114;2023-05-07T02:20:50;16.80;64.40
18721;DHT22;9489;50.948;3.114;2023-05-07T02:23:15;16.70;90.40
18721;DHT22;9489;50.948;3.114;2023-05-07T02:25:41;16.80;89.60
18721;DHT22;9489;50.948;3.114;2023-05-07T02:28:07;16.80;82.90
18721;DHT22;9489;50.948;3.114;2023-05-07T02:30:33;16.80;73.40
18721;DHT22;9489;50.948;3.114;2023-05-07T02:32:58;16.80;78.20
18721;DHT22;9489;50.948;3.114;2023-05-07T02:35:25;16.70;90.40
18721;DHT22;9489;50.948;3.114;2023-05-07T02:37:50;16.70;94.40
18721;DHT22;9489;50.948;3.114;2023-05-07T02:40:16;16.70;91.10
18721;DHT22;9489;50.948;3.114;2023-05-07T02:42:42;16.60;98.90
18721;DHT22;9489;50.948;3.114;2023-05-07T02:45:08;16.60;96.60
18721;DHT22;9489;50.948;3.114;2023-05-07T02:47:34;16.60;99.90
18721;DHT22;9489;50.948;3.114;2023-05-07T02:49:59;16.50;99.90
18721;DHT22;9489;50.948;3.114;2023-05-07T02:52:25;16.50;99.90
18721;DHT22;9489;50.948;3.114;2023-05-07T02:54:51;16.50;99.90
18721;DHT22;9489;50.948;3.114;2023-05-07T02:57:16;16.50;99.90
18721;DHT22;9489;50.948;3.114;2023-05-07T02:59:42;16.60;99.90
18721;DHT22;9489;50.948;3.114;2023-05-07T03:02:08;16.60;99.90
18721;DHT22;9489;50.948;3.114;2023-05-07T03:04:34;16.60;99.90
18721;DHT22;9489;50.948;3.114;2023-05-07T03:07:00;16.60;99.90
18721;DHT22;9489;50.948;3.114;2023-05-07T03:09:25;16.60;99.90
18721;DHT22;9489;50.948;3.114;2023-05-07T03:11:51;16.50;99.90
18721;DHT22;9489;50.948;3.114;2023-05-07T03:14:17;16.60;99.90
18721;DHT22;9489;50.948;3.114;2023-05-07T03:16:42;16.60;99.90
18721;DHT22;9489;50.948;3.114;2023-05-07T03:19:08;16.50;99.90
18721;DHT22;9489;50.948;3.114;2023-05-07T03:21:34;16.50;99.90
18721;DHT22;9489;50.948;3.114;2023-05-07T03:24:00;16.40;99.90
18721;DHT22;9489;50.948;3.114;2023-05-07T03:26:26;16.40;99.90
18721;DHT22;9489;50.948;3.114;2023-05-07T03:28:51;16.50;99.90
18721;DHT22;9489;50.948;3.114;2023-05-07T03:31:17;16.50;99.90
18721;DHT22;9489;50.948;3.114;2023-05-07T03:33:54;16.60;99.90
18721;DHT22;9489;50.948;3.114;2023-05-07T03:36:21;16.60;99.90
18721;DHT22;9489;50.948;3.114;2023-05-07T03:38:48;16.60;99.90
18721;DHT22;9489;50.948;3.114;2023-05-07T03:41:14;16.50;99.90
18721;DHT22;9489;50.948;3.114;2023-05-07T03:43:39;16.50;99.90
18721;DHT22;9489;50.948;3.114;2023-05-07T03:46:05;16.50;99.90
18721;DHT22;9489;50.948;3.114;2023-05-07T03:48:31;16.50;99.90
18721;DHT22;9489;50.948;3.114;2023-05-07T03:50:57;16.40;99.90
18721;DHT22;9489;50.948;3.114;2023-05-07T03:53:23;16.30;99.90
18721;DHT22;9489;50.948;3.114;2023-05-07T03:55:49;16.40;99.90
18721;DHT22;9489;50.948;3.114;2023-05-07T03:58:15;16.40;99.90
18721;DHT22;9489;50.948;3.114;2023-05-07T04:00:41;16.30;99.90
18721;DHT22;9489;50.948;3.114;2023-05-07T04:03:07;16.20;99.90
18721;DHT22;9489;50.948;3.114;2023-05-07T04:05:33;16.30;99.90
18721;DHT22;9489;50.948;3.114;2023-05-07T04:07:59;16.30;99.90
18721;DHT22;9489;50.948;3.114;2023-05-07T04:10:25;16.40;99.90
18721;DHT22;9489;50.948;3.114;2023-05-07T04:12:51;16.30;99.90
18721;DHT22;9489;50.948;3.114;2023-05-07T04:15:17;16.30;99.90
18721;DHT22;9489;50.948;3.114;2023-05-07T04:17:42;16.30;99.90
18721;DHT22;9489;50.948;3.114;2023-05-07T04:20:16;16.20;99.90
18721;DHT22;9489;50.948;3.114;2023-05-07T04:22:42;16.20;99.90
18721;DHT22;9489;50.948;3.114;2023-05-07T04:25:08;16.20;99.90
18721;DHT22;9489;50.948;3.114;2023-05-07T04:27:37;16.20;99.90
18721;DHT22;9489;50.948;3.114;2023-05-07T04:30:03;16.20;99.90
18721;DHT22;9489;50.948;3.114;2023-05-07T04:32:29;16.30;99.90
18721;DHT22;9489;50.948;3.114;2023-05-07T04:34:56;16.30;99.90
18721;DHT22;9489;50.948;3.114;2023-05-07T04:37:22;16.30;99.90
18721;DHT22;9489;50.948;3.114;2023-05-07T04:39:48;16.30;99.90
18721;DHT22;9489;50.948;3.114;2023-05-07T04:42:17;16.30;99.90
18721;DHT22;9489;50.948;3.114;2023-05-07T04:44:43;16.30;99.90
18721;DHT22;9489;50.948;3.114;2023-05-07T04:47:09;16.30;99.90
18721;DHT22;9489;50.948;3.114;2023-05-07T04:49:35;16.20;99.90
18721;DHT22;9489;50.948;3.114;2023-05-07T04:52:01;16.20;99.90
18721;DHT22;9489;50.948;3.114;2023-05-07T04:54:26;16.20;99.90
18721;DHT22;9489;50.948;3.114;2023-05-07T04:56:52;16.20;99.90
18721;DHT22;9489;50.948;3.114;2023-05-07T04:59:17;16.20;99.90
18721;DHT22;9489;50.948;3.114;2023-05-07T05:01:43;16.20;99.90
18721;DHT22;9489;50.948;3.114;2023-05-07T05:04:09;16.20;99.90
18721;DHT22;9489;50.948;3.114;2023-05-07T05:06:35;16.20;99.90
18721;DHT22;9489;50.948;3.114;2023-05-07T05:09:01;16.20;99.90
18721;DHT22;9489;50.948;3.114;2023-05-07T05:11:26;16.20;99.90
18721;DHT22;9489;50.948;3.114;2023-05-07T05:13:52;16.20;99.90
18721;DHT22;9489;50.948;3.114;2023-05-07T05:16:18;16.30;99.90
18721;DHT22;9489;50.948;3.114;2023-05-07T05:18:43;16.30;99.90
18721;DHT22;9489;50.948;3.114;2023-05-07T05:21:09;16.30;99.90
18721;DHT22;9489;50.948;3.114;2023-05-07T05:23:35;16.30;99.90
18721;DHT22;9489;50.948;3.114;2023-05-07T05:26:00;16.30;99.90
18721;DHT22;9489;50.948;3.114;2023-05-07T05:28:26;16.30;99.90
18721;DHT22;9489;50.948;3.114;2023-05-07T05:30:54;16.20;99.90
18721;DHT22;9489;50.948;3.114;2023-05-07T05:33:20;16.20;99.90
18721;DHT22;9489;50.948;3.114;2023-05-07T05:35:45;16.20;99.90
18721;DHT22;9489;50.948;3.114;2023-05-07T05:38:11;16.20;99.90
18721;DHT22;9489;50.948;3.114;2023-05-07T05:40:37;16.20;99.90
18721;DHT22;9489;50.948;3.114;2023-05-07T05:43:02;16.10;99.90
18721;DHT22;9489;50.948;3.114;2023-05-07T05:45:28;16.00;99.90
18721;DHT22;9489;50.948;3.114;2023-05-07T05:47:56;16.00;99.90
18721;DHT22;9489;50.948;3.114;2023-05-07T05:50:22;16.00;99.90
18721;DHT22;9489;50.948;3.114;2023-05-07T05:52:48;16.10;99.90
18721;DHT22;9489;50.948;3.114;2023-05-07T05:55:14;16.00;99.90
18721;DHT22;9489;50.948;3.114;2023-05-07T05:57:40;16.10;99.90
18721;DHT22;9489;50.948;3.114;2023-05-07T06:00:06;16.00;99.90
18721;DHT22;9489;50.948;3.114;2023-05-07T06:02:33;16.00;99.90
18721;DHT22;9489;50.948;3.114;2023-05-07T06:08:20;16.00;99.90
18721;DHT22;9489;50.948;3.114;2023-05-07T06:10:46;16.00;99.90
18721;DHT22;9489;50.948;3.114;2023-05-07T06:13:12;15.90;99.90
18721;DHT22;9489;50.948;3.114;2023-05-07T06:15:37;15.90;99.90
18721;DHT22;9489;50.948;3.114;2023-05-07T06:18:03;15.90;99.90
18721;DHT22;9489;50.948;3.114;2023-05-07T06:20:28;15.90;99.90
18721;DHT22;9489;50.948;3.114;2023-05-07T06:22:54;15.80;99.90
18721;DHT22;9489;50.948;3.114;2023-05-07T06:25:20;15.80;99.90
18721;DHT22;9489;50.948;3.114;2023-05-07T06:27:45;15.90;99.90
18721;DHT22;9489;50.948;3.114;2023-05-07T06:30:11;15.90;99.90
18721;DHT22;9489;50.948;3.114;2023-05-07T06:32:37;15.90;99.90
18721;DHT22;9489;50.948;3.114;2023-05-07T06:35:03;16.00;99.90
18721;DHT22;9489;50.948;3.114;2023-05-07T06:37:29;16.00;99.90
18721;DHT22;9489;50.948;3.114;2023-05-07T06:39:54;16.00;99.90
18721;DHT22;9489;50.948;3.114;2023-05-07T06:42:20;16.10;99.90
18721;DHT22;9489;50.948;3.114;2023-05-07T06:44:45;16.20;99.90
18721;DHT22;9489;50.948;3.114;2023-05-07T06:47:11;16.10;99.90
18721;DHT22;9489;50.948;3.114;2023-05-07T06:49:37;16.10;99.90
18721;DHT22;9489;50.948;3.114;2023-05-07T06:52:02;16.10;99.90
18721;DHT22;9489;50.948;3.114;2023-05-07T06:54:28;16.10;99.90
18721;DHT22;9489;50.948;3.114;2023-05-07T06:56:54;16.10;99.90
18721;DHT22;9489;50.948;3.114;2023-05-07T06:59:20;16.10;99.90
18721;DHT22;9489;50.948;3.114;2023-05-07T07:01:46;16.20;99.90
18721;DHT22;9489;50.948;3.114;2023-05-07T07:04:11;16.20;99.90
18721;DHT22;9489;50.948;3.114;2023-05-07T07:06:37;16.30;99.90
18721;DHT22;9489;50.948;3.114;2023-05-07T07:09:03;16.30;99.90
18721;DHT22;9489;50.948;3.114;2023-05-07T07:11:28;16.30;99.90
18721;DHT22;9489;50.948;3.114;2023-05-07T07:13:54;16.30;99.90
18721;DHT22;9489;50.948;3.114;2023-05-07T07:16:21;16.30;99.90
18721;DHT22;9489;50.948;3.114;2023-05-07T07:18:46;16.30;99.90
18721;DHT22;9489;50.948;3.114;2023-05-07T07:21:12;16.30;99.90
18721;DHT22;9489;50.948;3.114;2023-05-07T07:23:38;16.40;99.90
18721;DHT22;9489;50.948;3.114;2023-05-07T07:26:03;16.40;99.90
18721;DHT22;9489;50.948;3.114;2023-05-07T07:28:29;16.40;99.90
18721;DHT22;9489;50.948;3.114;2023-05-07T07:30:55;16.30;99.90
18721;DHT22;9489;50.948;3.114;2023-05-07T07:33:20;16.30;99.90
18721;DHT22;9489;50.948;3.114;2023-05-07T07:35:46;16.30;99.90
18721;DHT22;9489;50.948;3.114;2023-05-07T07:38:11;16.30;99.90
18721;DHT22;9489;50.948;3.114;2023-05-07T07:40:37;16.30;99.90
18721;DHT22;9489;50.948;3.114;2023-05-07T07:43:03;16.30;99.90
18721;DHT22;9489;50.948;3.114;2023-05-07T07:45:29;16.40;99.90
18721;DHT22;9489;50.948;3.114;2023-05-07T07:47:54;16.40;99.90
18721;DHT22;9489;50.948;3.114;2023-05-07T07:50:20;16.40;99.90
18721;DHT22;9489;50.948;3.114;2023-05-07T07:52:46;16.40;99.90
18721;DHT22;9489;50.948;3.114;2023-05-07T07:55:12;16.50;99.90
18721;DHT22;9489;50.948;3.114;2023-05-07T07:57:37;16.60;99.90
18721;DHT22;9489;50.948;3.114;2023-05-07T08:00:03;16.50;99.90
18721;DHT22;9489;50.948;3.114;2023-05-07T08:02:29;16.50;99.90
18721;DHT22;9489;50.948;3.114;2023-05-07T08:04:55;16.50;99.90
18721;DHT22;9489;50.948;3.114;2023-05-07T08:07:21;16.50;99.90
18721;DHT22;9489;50.948;3.114;2023-05-07T08:09:48;16.50;99.90
18721;DHT22;9489;50.948;3.114;2023-05-07T08:12:14;16.70;99.90
18721;DHT22;9489;50.948;3.114;2023-05-07T08:14:40;16.60;99.90
18721;DHT22;9489;50.948;3.114;2023-05-07T08:17:05;16.70;99.90
18721;DHT22;9489;50.948;3.114;2023-05-07T08:19:32;16.70;99.90
18721;DHT22;9489;50.948;3.114;2023-05-07T08:21:57;16.90;99.90
18721;DHT22;9489;50.948;3.114;2023-05-07T08:24:23;16.90;99.90
18721;DHT22;9489;50.948;3.114;2023-05-07T08:26:49;16.90;99.90
18721;DHT22;9489;50.948;3.114;2023-05-07T08:29:15;17.00;99.90
18721;DHT22;9489;50.948;3.114;2023-05-07T08:31:40;17.00;99.90
18721;DHT22;9489;50.948;3.114;2023-05-07T08:34:06;17.10;99.90
18721;DHT22;9489;50.948;3.114;2023-05-07T08:36:32;17.10;99.90
18721;DHT22;9489;50.948;3.114;2023-05-07T08:38:58;17.10;99.90
18721;DHT22;9489;50.948;3.114;2023-05-07T08:41:24;17.20;99.90
18721;DHT22;9489;50.948;3.114;2023-05-07T08:43:51;17.20;99.90
18721;DHT22;9489;50.948;3.114;2023-05-07T08:46:21;17.20;99.90
18721;DHT22;9489;50.948;3.114;2023-05-07T08:48:50;17.20;99.90
18721;DHT22;9489;50.948;3.114;2023-05-07T08:51:18;17.20;99.90
18721;DHT22;9489;50.948;3.114;2023-05-07T08:53:46;17.30;99.90
18721;DHT22;9489;50.948;3.114;2023-05-07T08:56:14;17.40;99.90
18721;DHT22;9489;50.948;3.114;2023-05-07T08:58:44;17.30;99.90
18721;DHT22;9489;50.948;3.114;2023-05-07T09:01:13;17.30;99.90
18721;DHT22;9489;50.948;3.114;2023-05-07T09:03:43;17.40;99.90
18721;DHT22;9489;50.948;3.114;2023-05-07T09:06:09;17.30;99.90
18721;DHT22;9489;50.948;3.114;2023-05-07T09:08:35;17.30;99.90
18721;DHT22;9489;50.948;3.114;2023-05-07T09:11:02;17.30;99.90
18721;DHT22;9489;50.948;3.114;2023-05-07T09:13:28;17.10;99.90
18721;DHT22;9489;50.948;3.114;2023-05-07T09:15:55;17.00;99.90
18721;DHT22;9489;50.948;3.114;2023-05-07T09:18:21;17.00;99.90
18721;DHT22;9489;50.948;3.114;2023-05-07T09:20:46;17.00;99.90
18721;DHT22;9489;50.948;3.114;2023-05-07T09:23:12;16.90;99.90
18721;DHT22;9489;50.948;3.114;2023-05-07T09:25:39;16.90;99.90
18721;DHT22;9489;50.948;3.114;2023-05-07T09:28:05;16.90;99.90
18721;DHT22;9489;50.948;3.114;2023-05-07T09:30:35;17.00;99.90
18721;DHT22;9489;50.948;3.114;2023-05-07T09:33:03;16.80;99.90
18721;DHT22;9489;50.948;3.114;2023-05-07T09:35:30;16.90;99.90
18721;DHT22;9489;50.948;3.114;2023-05-07T09:37:57;17.00;99.90
18721;DHT22;9489;50.948;3.114;2023-05-07T09:40:28;17.00;99.90
18721;DHT22;9489;50.948;3.114;2023-05-07T09:42:54;17.10;99.90
18721;DHT22;9489;50.948;3.114;2023-05-07T09:45:29;17.00;99.90
18721;DHT22;9489;50.948;3.114;2023-05-07T09:47:56;16.90;99.90
18721;DHT22;9489;50.948;3.114;2023-05-07T09:50:27;16.90;99.90
18721;DHT22;9489;50.948;3.114;2023-05-07T09:52:54;16.80;99.90
18721;DHT22;9489;50.948;3.114;2023-05-07T09:55:21;16.80;99.90
18721;DHT22;9489;50.948;3.114;2023-05-07T09:57:50;16.80;99.90
18721;DHT22;9489;50.948;3.114;2023-05-07T10:00:18;16.90;99.90
18721;DHT22;9489;50.948;3.114;2023-05-07T10:02:46;16.80;99.90
18721;DHT22;9489;50.948;3.114;2023-05-07T10:05:15;16.80;99.90
18721;DHT22;9489;50.948;3.114;2023-05-07T10:07:41;16.90;99.90
18721;DHT22;9489;50.948;3.114;2023-05-07T10:10:07;16.90;99.90
18721;DHT22;9489;50.948;3.114;2023-05-07T10:12:33;16.90;99.90
18721;DHT22;9489;50.948;3.114;2023-05-07T10:15:06;16.80;99.90
18721;DHT22;9489;50.948;3.114;2023-05-07T10:17:38;16.60;99.90
18721;DHT22;9489;50.948;3.114;2023-05-07T10:20:08;16.60;99.90
18721;DHT22;9489;50.948;3.114;2023-05-07T10:22:48;16.50;99.90
18721;DHT22;9489;50.948;3.114;2023-05-07T10:25:31;16.40;99.90
18721;DHT22;9489;50.948;3.114;2023-05-07T10:28:00;16.40;99.90
18721;DHT22;9489;50.948;3.114;2023-05-07T10:33:25;16.60;99.90
18721;DHT22;9489;50.948;3.114;2023-05-07T10:35:57;16.70;99.90
18721;DHT22;9489;50.948;3.114;2023-05-07T10:38:24;16.80;99.90
18721;DHT22;9489;50.948;3.114;2023-05-07T10:40:51;16.80;99.90
18721;DHT22;9489;50.948;3.114;2023-05-07T10:43:17;16.80;99.90
18721;DHT22;9489;50.948;3.114;2023-05-07T10:45:42;16.90;99.90
18721;DHT22;9489;50.948;3.114;2023-05-07T10:48:15;17.00;99.90
18721;DHT22;9489;50.948;3.114;2023-05-07T10:50:44;17.10;99.90
18721;DHT22;9489;50.948;3.114;2023-05-07T10:55:49;17.30;99.90
18721;DHT22;9489;50.948;3.114;2023-05-07T11:00:46;17.50;99.90
18721;DHT22;9489;50.948;3.114;2023-05-07T11:03:12;17.40;99.90
18721;DHT22;9489;50.948;3.114;2023-05-07T11:05:40;17.50;99.90
18721;DHT22;9489;50.948;3.114;2023-05-07T11:08:06;17.50;99.90
18721;DHT22;9489;50.948;3.114;2023-05-07T11:10:53;17.60;99.90
18721;DHT22;9489;50.948;3.114;2023-05-07T11:13:46;17.70;99.90
18721;DHT22;9489;50.948;3.114;2023-05-07T11:16:19;17.80;99.90
18721;DHT22;9489;50.948;3.114;2023-05-07T11:18:49;17.90;99.90
18721;DHT22;9489;50.948;3.114;2023-05-07T11:21:38;18.00;99.90
18721;DHT22;9489;50.948;3.114;2023-05-07T11:24:06;18.20;99.90
18721;DHT22;9489;50.948;3.114;2023-05-07T11:29:16;18.20;99.90
18721;DHT22;9489;50.948;3.114;2023-05-07T11:31:43;18.20;99.90
18721;DHT22;9489;50.948;3.114;2023-05-07T11:34:09;18.20;99.90
18721;DHT22;9489;50.948;3.114;2023-05-07T11:36:35;18.10;99.90
18721;DHT22;9489;50.948;3.114;2023-05-07T11:39:23;18.20;99.90
18721;DHT22;9489;50.948;3.114;2023-05-07T11:41:49;18.30;99.90
18721;DHT22;9489;50.948;3.114;2023-05-07T11:44:14;18.50;99.90
18721;DHT22;9489;50.948;3.114;2023-05-07T11:46:43;18.70;99.90
18721;DHT22;9489;50.948;3.114;2023-05-07T11:49:09;18.70;99.90
18721;DHT22;9489;50.948;3.114;2023-05-07T11:51:35;18.70;99.90
18721;DHT22;9489;50.948;3.114;2023-05-07T11:54:03;18.80;99.90
18721;DHT22;9489;50.948;3.114;2023-05-07T11:56:29;18.90;87.80
18721;DHT22;9489;50.948;3.114;2023-05-07T11:58:54;18.80;19.00
18721;DHT22;9489;50.948;3.114;2023-05-07T12:01:20;18.90;11.90
18721;DHT22;9489;50.948;3.114;2023-05-07T12:03:46;18.90;32.70
18721;DHT22;9489;50.948;3.114;2023-05-07T12:06:13;19.00;38.00
18721;DHT22;9489;50.948;3.114;2023-05-07T12:08:40;19.10;36.70
18721;DHT22;9489;50.948;3.114;2023-05-07T12:11:08;19.20;24.60
18721;DHT22;9489;50.948;3.114;2023-05-07T12:13:35;19.30;1.00
18721;DHT22;9489;50.948;3.114;2023-05-07T12:16:01;19.40;7.70
18721;DHT22;9489;50.948;3.114;2023-05-07T12:18:29;19.50;1.00
18721;DHT22;9489;50.948;3.114;2023-05-07T12:20:55;19.60;1.00
18721;DHT22;9489;50.948;3.114;2023-05-07T12:23:22;19.60;1.00
18721;DHT22;9489;50.948;3.114;2023-05-07T12:25:47;19.50;1.00
18721;DHT22;9489;50.948;3.114;2023-05-07T12:28:18;19.50;1.00
18721;DHT22;9489;50.948;3.114;2023-05-07T12:30:45;19.50;1.00
18721;DHT22;9489;50.948;3.114;2023-05-07T12:33:11;19.30;1.00
18721;DHT22;9489;50.948;3.114;2023-05-07T12:35:41;19.20;2.40
18721;DHT22;9489;50.948;3.114;2023-05-07T12:38:14;19.20;19.40
18721;DHT22;9489;50.948;3.114;2023-05-07T12:40:45;19.10;91.00
18721;DHT22;9489;50.948;3.114;2023-05-07T12:43:18;19.00;99.90
18721;DHT22;9489;50.948;3.114;2023-05-07T12:45:44;18.80;99.90
18721;DHT22;9489;50.948;3.114;2023-05-07T12:48:10;18.60;99.90
18721;DHT22;9489;50.948;3.114;2023-05-07T12:50:36;18.60;99.90
18721;DHT22;9489;50.948;3.114;2023-05-07T12:53:06;18.60;99.90
18721;DHT22;9489;50.948;3.114;2023-05-07T12:55:41;18.60;99.90
18721;DHT22;9489;50.948;3.114;2023-05-07T12:58:07;18.60;99.90
18721;DHT22;9489;50.948;3.114;2023-05-07T13:00:37;18.60;99.90
18721;DHT22;9489;50.948;3.114;2023-05-07T13:03:03;18.50;99.90
18721;DHT22;9489;50.948;3.114;2023-05-07T13:05:29;18.50;99.90
18721;DHT22;9489;50.948;3.114;2023-05-07T13:07:56;18.50;99.90
18721;DHT22;9489;50.948;3.114;2023-05-07T13:10:22;18.60;99.90
18721;DHT22;9489;50.948;3.114;2023-05-07T13:12:49;18.70;99.90
18721;DHT22;9489;50.948;3.114;2023-05-07T13:15:15;18.80;99.90
18721;DHT22;9489;50.948;3.114;2023-05-07T13:17:41;18.90;99.90
18721;DHT22;9489;50.948;3.114;2023-05-07T13:20:08;19.20;99.90
18721;DHT22;9489;50.948;3.114;2023-05-07T13:22:34;19.30;99.90
18721;DHT22;9489;50.948;3.114;2023-05-07T13:25:00;19.30;99.90
18721;DHT22;9489;50.948;3.114;2023-05-07T13:27:25;19.40;99.90
18721;DHT22;9489;50.948;3.114;2023-05-07T13:29:51;19.40;99.90
18721;DHT22;9489;50.948;3.114;2023-05-07T13:32:17;19.40;99.90
18721;DHT22;9489;50.948;3.114;2023-05-07T13:34:43;19.60;99.90
18721;DHT22;9489;50.948;3.114;2023-05-07T13:37:08;19.60;99.90
18721;DHT22;9489;50.948;3.114;2023-05-07T13:39:34;19.70;99.90
18721;DHT22;9489;50.948;3.114;2023-05-07T13:42:00;19.80;99.90
18721;DHT22;9489;50.948;3.114;2023-05-07T13:44:26;19.90;99.90
18721;DHT22;9489;50.948;3.114;2023-05-07T13:46:52;20.00;99.90
18721;DHT22;9489;50.948;3.114;2023-05-07T13:49:17;20.20;74.30
18721;DHT22;9489;50.948;3.114;2023-05-07T13:51:43;20.40;52.70
18721;DHT22;9489;50.948;3.114;2023-05-07T13:54:09;20.50;2.50
18721;DHT22;9489;50.948;3.114;2023-05-07T13:56:34;20.60;1.00
18721;DHT22;9489;50.948;3.114;2023-05-07T13:59:00;20.70;1.00
18721;DHT22;9489;50.948;3.114;2023-05-07T14:01:26;20.80;1.00
18721;DHT22;9489;50.948;3.114;2023-05-07T14:03:52;20.90;1.00
18721;DHT22;9489;50.948;3.114;2023-05-07T14:06:18;21.00;1.00
18721;DHT22;9489;50.948;3.114;2023-05-07T14:08:43;21.10;1.00
18721;DHT22;9489;50.948;3.114;2023-05-07T14:11:09;21.10;1.00
18721;DHT22;9489;50.948;3.114;2023-05-07T14:13:34;21.30;1.00
18721;DHT22;9489;50.948;3.114;2023-05-07T14:16:00;21.10;1.00
18721;DHT22;9489;50.948;3.114;2023-05-07T14:18:26;21.10;1.00
18721;DHT22;9489;50.948;3.114;2023-05-07T14:20:54;21.10;1.00
18721;DHT22;9489;50.948;3.114;2023-05-07T14:23:19;21.20;1.00
18721;DHT22;9489;50.948;3.114;2023-05-07T14:25:47;21.10;1.00
18721;DHT22;9489;50.948;3.114;2023-05-07T14:28:13;21.00;1.00
18721;DHT22;9489;50.948;3.114;2023-05-07T14:30:39;21.20;1.00
18721;DHT22;9489;50.948;3.114;2023-05-07T14:33:04;21.30;1.00
18721;DHT22;9489;50.948;3.114;2023-05-07T14:35:30;21.50;1.00
18721;DHT22;9489;50.948;3.114;2023-05-07T14:37:55;21.70;1.00
18721;DHT22;9489;50.948;3.114;2023-05-07T14:40:21;22.00;1.00
18721;DHT22;9489;50.948;3.114;2023-05-07T14:42:47;22.00;1.00
18721;DHT22;9489;50.948;3.114;2023-05-07T14:45:12;22.40;1.00
18721;DHT22;9489;50.948;3.114;2023-05-07T14:47:38;22.70;99.90
18721;DHT22;9489;50.948;3.114;2023-05-07T14:50:04;23.00;1.00
18721;DHT22;9489;50.948;3.114;2023-05-07T14:52:30;23.00;1.00
18721;DHT22;9489;50.948;3.114;2023-05-07T14:54:55;23.00;99.90
18721;DHT22;9489;50.948;3.114;2023-05-07T14:57:21;23.00;1.00
18721;DHT22;9489;50.948;3.114;2023-05-07T14:59:47;23.00;99.90
18721;DHT22;9489;50.948;3.114;2023-05-07T15:02:12;22.90;1.00
18721;DHT22;9489;50.948;3.114;2023-05-07T15:04:38;22.70;99.90
18721;DHT22;9489;50.948;3.114;2023-05-07T15:07:13;22.40;1.00
18721;DHT22;9489;50.948;3.114;2023-05-07T15:09:41;22.40;1.00
18721;DHT22;9489;50.948;3.114;2023-05-07T15:12:07;22.20;99.90
18721;DHT22;9489;50.948;3.114;2023-05-07T15:14:33;21.90;1.00
18721;DHT22;9489;50.948;3.114;2023-05-07T15:16:58;21.70;1.00
18721;DHT22;9489;50.948;3.114;2023-05-07T15:19:24;21.60;99.90
18721;DHT22;9489;50.948;3.114;2023-05-07T15:21:54;21.70;99.90
18721;DHT22;9489;50.948;3.114;2023-05-07T15:24:22;21.90;1.00
18721;DHT22;9489;50.948;3.114;2023-05-07T15:26:48;22.00;1.00
18721;DHT22;9489;50.948;3.114;2023-05-07T15:29:13;22.10;1.00
18721;DHT22;9489;50.948;3.114;2023-05-07T15:31:39;22.10;1.00
18721;DHT22;9489;50.948;3.114;2023-05-07T15:34:05;22.20;1.00
18721;DHT22;9489;50.948;3.114;2023-05-07T15:36:30;22.30;49.60
18721;DHT22;9489;50.948;3.114;2023-05-07T15:38:57;22.10;1.00
18721;DHT22;9489;50.948;3.114;2023-05-07T15:41:22;22.00;99.90
18721;DHT22;9489;50.948;3.114;2023-05-07T15:43:51;22.10;1.00
18721;DHT22;9489;50.948;3.114;2023-05-07T15:46:21;22.10;6.40
18721;DHT22;9489;50.948;3.114;2023-05-07T15:48:48;22.20;1.00
18721;DHT22;9489;50.948;3.114;2023-05-07T15:51:15;22.10;99.90
18721;DHT22;9489;50.948;3.114;2023-05-07T15:53:41;22.30;99.90
18721;DHT22;9489;50.948;3.114;2023-05-07T15:56:07;22.40;1.00
18721;DHT22;9489;50.948;3.114;2023-05-07T15:58:32;22.40;1.00